Time,TemperatureF,DewpointF,PressureIn,WindDirection,WindDirectionDegrees,WindSpeedMPH,WindSpeedGustMPH,Humidity,HourlyPrecipIn,Conditions,Clouds,dailyrainin,SolarRadiationWatts/m^2,SoftwareType,DateUTC
2013-03-14 00:02:00,66.0,17.0,-100.00,SSE,154,3.0,7.0,15,0.00,,,0.00,0.000000,,2013-03-14 07:02:00,
2013-03-14 00:11:00,66.0,17.0,-100.00,SSE,154,3.0,7.0,15,0.00,,,0.00,0.000000,,2013-03-14 07:11:00,
2013-03-14 00:22:00,66.0,17.0,-100.00,SSE,154,3.0,7.0,15,0.00,,,0.00,0.000000,,2013-03-14 07:22:00,
2013-03-14 00:52:00,67.0,19.0,-100.00,SW,222,0.0,6.0,16,0.00,,,0.00,0.000000,,2013-03-14 07:52:00,
2013-03-14 01:02:00,67.0,19.0,-100.00,SW,222,0.0,6.0,16,0.00,,,0.00,0.000000,,2013-03-14 08:02:00,
2013-03-14 01:11:00,67.0,19.0,-100.00,SW,222,0.0,6.0,16,0.00,,,0.00,0.000000,,2013-03-14 08:11:00,
2013-03-14 01:21:00,67.0,19.0,-100.00,SW,222,0.0,6.0,16,0.00,,,0.00,0.000000,,2013-03-14 08:21:00,
2013-03-14 01:52:00,65.0,19.0,-100.00,SSE,148,0.0,6.0,17,0.00,,,0.00,0.000000,,2013-03-14 08:52:00,
2013-03-14 02:01:00,65.0,19.0,-100.00,SSE,148,0.0,6.0,17,0.00,,,0.00,0.000000,,2013-03-14 09:01:00,
2013-03-14 02:12:00,65.0,19.0,-100.00,SSE,148,0.0,6.0,17,0.00,,,0.00,0.000000,,2013-03-14 09:12:00,
2013-03-14 02:22:00,65.0,19.0,-100.00,SSE,148,0.0,6.0,17,0.00,,,0.00,0.000000,,2013-03-14 09:22:00,
2013-03-14 02:52:00,62.0,17.0,-100.00,NW,315,2.0,7.0,17,0.00,,,0.00,0.000000,,2013-03-14 09:52:00,
2013-03-14 03:02:00,62.0,17.0,-100.00,NW,315,2.0,7.0,17,0.00,,,0.00,0.000000,,2013-03-14 10:02:00,
2013-03-14 03:12:00,62.0,17.0,-100.00,NW,315,2.0,7.0,17,0.00,,,0.00,0.000000,,2013-03-14 10:12:00,
2013-03-14 03:22:00,62.0,17.0,-100.00,NW,315,2.0,7.0,17,0.00,,,0.00,0.000000,,2013-03-14 10:22:00,
2013-03-14 03:52:00,64.0,17.0,-100.00,NW,326,6.0,8.0,16,0.00,,,0.00,0.000000,,2013-03-14 10:52:00,
2013-03-14 04:02:00,64.0,17.0,-100.00,NW,326,6.0,8.0,16,0.00,,,0.00,0.000000,,2013-03-14 11:02:00,
2013-03-14 04:12:00,64.0,17.0,-100.00,NW,326,6.0,8.0,16,0.00,,,0.00,0.000000,,2013-03-14 11:12:00,
2013-03-14 04:22:00,64.0,17.0,-100.00,NW,326,6.0,8.0,16,0.00,,,0.00,0.000000,,2013-03-14 11:22:00,
2013-03-14 04:52:00,64.0,18.0,-100.00,SSW,197,0.0,7.0,17,0.00,,,0.00,0.000000,,2013-03-14 11:52:00,
2013-03-14 05:02:00,64.0,18.0,-100.00,SSW,197,0.0,7.0,17,0.00,,,0.00,0.000000,,2013-03-14 12:02:00,
2013-03-14 05:12:00,64.0,18.0,-100.00,SSW,197,0.0,7.0,17,0.00,,,0.00,0.000000,,2013-03-14 12:12:00,
2013-03-14 05:22:00,64.0,18.0,-100.00,SSW,197,0.0,7.0,17,0.00,,,0.00,0.000000,,2013-03-14 12:22:00,
2013-03-14 05:52:00,64.0,18.0,-100.00,West,277,0.0,7.0,17,0.00,,,0.00,0.000000,,2013-03-14 12:52:00,
2013-03-14 06:02:00,64.0,18.0,-100.00,West,277,0.0,7.0,17,0.00,,,0.00,0.000000,,2013-03-14 13:02:00,
2013-03-14 06:12:00,64.0,18.0,-100.00,West,277,0.0,7.0,17,0.00,,,0.00,0.000000,,2013-03-14 13:12:00,
2013-03-14 06:21:00,64.0,18.0,-100.00,West,277,0.0,7.0,17,0.00,,,0.00,0.000000,,2013-03-14 13:21:00,
2013-03-14 06:52:00,64.0,18.0,-100.00,South,176,0.0,0.0,17,-99.99,,,0.00,0.000000,,2013-03-14 13:52:00,
2013-03-14 07:02:00,64.0,18.0,-100.00,South,176,0.0,0.0,17,-99.99,,,0.00,0.000000,,2013-03-14 14:02:00,
2013-03-14 07:12:00,64.0,18.0,-100.00,South,176,0.0,0.0,17,-99.99,,,0.00,0.000000,,2013-03-14 14:12:00,
2013-03-14 07:22:00,64.0,18.0,-100.00,South,176,0.0,0.0,17,-99.99,,,0.00,0.000000,,2013-03-14 14:22:00,
2013-03-14 07:53:00,63.0,18.0,-100.00,NNE,26,4.0,7.0,17,-99.99,,,0.00,5.000000,,2013-03-14 14:53:00,
2013-03-14 08:02:00,63.0,18.0,-100.00,NNE,26,4.0,7.0,17,-99.99,,,0.00,5.000000,,2013-03-14 15:02:00,
2013-03-14 08:12:00,63.0,18.0,-100.00,NNE,26,4.0,7.0,17,-99.99,,,0.00,5.000000,,2013-03-14 15:12:00,
2013-03-14 08:21:00,63.0,18.0,-100.00,NNE,26,4.0,7.0,17,-99.99,,,0.00,5.000000,,2013-03-14 15:21:00,
2013-03-14 08:52:00,67.0,18.0,-100.00,NNE,19,5.0,8.0,15,-99.99,,,0.00,160.000000,,2013-03-14 15:52:00,
2013-03-14 09:22:00,67.0,18.0,-100.00,NNE,19,5.0,8.0,15,-99.99,,,0.00,160.000000,,2013-03-14 16:22:00,
2013-03-14 09:52:00,70.0,17.0,-100.00,NE,44,0.0,5.0,13,0.00,,,0.00,106.000000,,2013-03-14 16:52:00,
2013-03-14 10:02:00,70.0,17.0,-100.00,NE,44,0.0,5.0,13,0.00,,,0.00,106.000000,,2013-03-14 17:02:00,
2013-03-14 10:22:00,70.0,17.0,-100.00,NE,44,0.0,5.0,13,0.00,,,0.00,106.000000,,2013-03-14 17:22:00,
2013-03-14 10:52:00,72.0,18.0,-100.00,NE,38,5.0,8.0,13,0.00,,,0.00,619.000000,,2013-03-14 17:52:00,
2013-03-14 11:02:00,72.0,18.0,-100.00,NE,38,5.0,8.0,13,0.00,,,0.00,619.000000,,2013-03-14 18:02:00,
2013-03-14 11:12:00,72.0,18.0,-100.00,NE,38,5.0,8.0,13,0.00,,,0.00,619.000000,,2013-03-14 18:12:00,
2013-03-14 11:22:00,72.0,18.0,-100.00,NE,38,5.0,8.0,13,0.00,,,0.00,619.000000,,2013-03-14 18:22:00,
2013-03-14 11:52:00,78.0,19.0,-100.00,South,187,4.0,10.0,11,0.00,,,0.00,877.000000,,2013-03-14 18:52:00,
2013-03-14 13:52:00,82.0,22.0,-100.00,South,172,8.0,15.0,11,-99.99,,,0.00,1112.000000,,2013-03-14 20:52:00,
2013-03-14 14:02:00,82.0,22.0,-100.00,South,172,8.0,15.0,11,-99.99,,,0.00,1112.000000,,2013-03-14 21:02:00,
2013-03-14 14:53:00,80.0,19.0,-100.00,SSE,156,7.0,19.0,10,0.00,,,0.00,1019.000000,,2013-03-14 21:53:00,
2013-03-14 15:03:00,80.0,19.0,-100.00,SSE,156,7.0,19.0,10,0.00,,,0.00,1019.000000,,2013-03-14 22:03:00,
2013-03-14 15:12:00,80.0,19.0,-100.00,SSE,156,7.0,19.0,10,0.00,,,0.00,1019.000000,,2013-03-14 22:12:00,
2013-03-14 15:23:00,80.0,19.0,-100.00,SSE,156,7.0,19.0,10,0.00,,,0.00,1019.000000,,2013-03-14 22:23:00,
2013-03-14 15:52:00,82.0,20.0,-100.00,South,169,14.0,22.0,10,0.00,,,0.00,793.000000,,2013-03-14 22:52:00,
2013-03-14 16:02:00,82.0,20.0,-100.00,South,169,14.0,22.0,10,0.00,,,0.00,793.000000,,2013-03-14 23:02:00,
2013-03-14 16:12:00,82.0,20.0,-100.00,South,169,14.0,22.0,10,0.00,,,0.00,793.000000,,2013-03-14 23:12:00,
2013-03-14 16:22:00,82.0,20.0,-100.00,South,169,14.0,22.0,10,0.00,,,0.00,793.000000,,2013-03-14 23:22:00,
2013-03-14 16:53:00,80.0,16.0,-100.00,South,169,18.0,27.0,9,0.00,,,0.00,691.000000,,2013-03-14 23:53:00,
2013-03-14 17:02:00,80.0,16.0,-100.00,South,169,18.0,27.0,9,0.00,,,0.00,691.000000,,2013-03-15 00:02:00,
2013-03-14 17:12:00,80.0,16.0,-100.00,South,169,18.0,27.0,9,0.00,,,0.00,691.000000,,2013-03-15 00:12:00,
2013-03-14 17:52:00,79.0,15.0,-100.00,SSE,164,17.0,26.0,9,0.00,,,-99.99,459.000000,,2013-03-15 00:52:00,
2013-03-14 18:02:00,79.0,15.0,-100.00,SSE,164,17.0,26.0,9,0.00,,,-99.99,459.000000,,2013-03-15 01:02:00,
2013-03-14 18:11:00,79.0,15.0,-100.00,SSE,164,17.0,26.0,9,0.00,,,-99.99,459.000000,,2013-03-15 01:11:00,
2013-03-14 18:21:00,79.0,15.0,-100.00,SSE,164,17.0,26.0,9,0.00,,,-99.99,459.000000,,2013-03-15 01:21:00,
2013-03-14 18:52:00,75.0,19.0,-100.00,SSE,167,11.0,21.0,12,0.00,,,0.00,120.000000,,2013-03-15 01:52:00,
2013-03-14 19:02:00,75.0,19.0,-100.00,SSE,167,11.0,21.0,12,0.00,,,0.00,120.000000,,2013-03-15 02:02:00,
2013-03-14 19:12:00,75.0,19.0,-100.00,SSE,167,11.0,21.0,12,0.00,,,0.00,120.000000,,2013-03-15 02:12:00,
2013-03-14 19:22:00,75.0,19.0,-100.00,SSE,167,11.0,21.0,12,0.00,,,0.00,120.000000,,2013-03-15 02:22:00,
2013-03-14 19:52:00,74.0,18.0,-100.00,NW,314,3.0,14.0,12,0.00,,,0.00,16.000000,,2013-03-15 02:52:00,
2013-03-14 20:02:00,74.0,18.0,-100.00,NW,314,3.0,14.0,12,0.00,,,0.00,16.000000,,2013-03-15 03:02:00,
2013-03-14 20:12:00,74.0,18.0,-100.00,NW,314,3.0,14.0,12,0.00,,,0.00,16.000000,,2013-03-15 03:12:00,
2013-03-14 20:22:00,74.0,18.0,-100.00,NW,314,3.0,14.0,12,0.00,,,0.00,16.000000,,2013-03-15 03:22:00,
2013-03-14 20:53:00,73.0,19.0,-100.00,West,259,7.0,14.0,13,0.00,,,0.00,0.000000,,2013-03-15 03:53:00,
2013-03-14 21:03:00,73.0,19.0,-100.00,West,259,7.0,14.0,13,0.00,,,0.00,0.000000,,2013-03-15 04:03:00,
2013-03-14 21:12:00,73.0,19.0,-100.00,West,259,7.0,14.0,13,0.00,,,0.00,0.000000,,2013-03-15 04:12:00,
2013-03-14 21:22:00,73.0,19.0,-100.00,West,259,7.0,14.0,13,0.00,,,0.00,0.000000,,2013-03-15 04:22:00,
2013-03-14 21:53:00,71.0,16.0,-100.00,WSW,244,10.0,13.0,12,0.00,,,0.00,0.000000,,2013-03-15 04:53:00,
2013-03-14 22:02:00,71.0,16.0,-100.00,WSW,244,10.0,13.0,12,0.00,,,0.00,0.000000,,2013-03-15 05:02:00,
2013-03-14 22:12:00,71.0,16.0,-100.00,WSW,244,10.0,13.0,12,0.00,,,0.00,0.000000,,2013-03-15 05:12:00,
2013-03-14 22:22:00,71.0,16.0,-100.00,WSW,244,10.0,13.0,12,0.00,,,0.00,0.000000,,2013-03-15 05:22:00,
2013-03-14 22:52:00,73.0,15.0,-100.00,WNW,284,13.0,20.0,11,0.00,,,-99.99,0.000000,,2013-03-15 05:52:00,
2013-03-14 23:02:00,73.0,15.0,-100.00,WNW,284,13.0,20.0,11,0.00,,,-99.99,0.000000,,2013-03-15 06:02:00,
2013-03-14 23:12:00,73.0,15.0,-100.00,WNW,284,13.0,20.0,11,0.00,,,-99.99,0.000000,,2013-03-15 06:12:00,
2013-03-14 23:22:00,73.0,15.0,-100.00,WNW,284,13.0,20.0,11,0.00,,,-99.99,0.000000,,2013-03-15 06:22:00,
2013-03-14 23:53:00,71.0,16.0,-100.00,SSE,153,1.0,21.0,12,0.00,,,0.00,0.000000,,2013-03-15 06:53:00,